Time;durP1;ratioP1;P1;durP2;ratioP2;P2;SDS_P1;SDS_P2;PMS_P1;PMS_P2;Temp;Humidity;BMP_temperature;BMP_pressure;BME280_temperature;BME280_humidity;BME280_pressure;Samples;Min_cycle;Max_cycle;Signal;HPM_P1;HPM_P2
2021/01/05 00:05:31;;;;;;;1999.90;999.90;;;;;;;3.21;79.42;101267.69;15860940;28;20047;-53
2021/01/05 00:13:04;;;;;;;1999.90;999.90;;;;;;;3.10;79.79;101270.41;15861084;28;20044;-60
2021/01/05 00:20:37;;;;;;;1999.90;999.90;;;;;;;3.18;79.96;101260.81;15860371;28;20465;-61
2021/01/05 00:28:11;;;;;;;1999.90;999.90;;;;;;;3.19;79.79;101271.56;15840867;28;20384;-56
2021/01/05 00:35:44;;;;;;;1999.90;999.90;;;;;;;3.24;79.66;101261.66;15860767;28;20068;-53
2021/01/05 00:43:17;;;;;;;1999.90;999.90;;;;;;;3.21;79.62;101267.69;15860391;28;20515;-59
2021/01/05 00:50:52;;;;;;;1999.90;999.90;;;;;;;3.26;79.94;101270.50;15817585;28;20036;-59
2021/01/05 00:58:24;;;;;;;1999.90;999.90;;;;;;;3.17;79.76;101267.41;15842154;28;20117;-58
2021/01/05 01:05:59;;;;;;;1999.90;999.90;;;;;;;3.22;79.22;101267.41;15851991;28;20086;-61
2021/01/05 01:13:35;;;;;;;1999.90;999.90;;;;;;;3.33;79.17;101271.03;15852691;28;20051;-61
2021/01/05 01:21:09;;;;;;;1999.90;999.90;;;;;;;3.31;79.17;101267.72;15851354;28;20047;-59
2021/01/05 01:28:43;;;;;;;1999.90;999.90;;;;;;;3.47;78.90;101266.69;15851229;28;20043;-59
2021/01/05 01:36:19;;;;;;;1999.90;999.90;;;;;;;3.37;79.09;101274.94;15851058;28;20036;-60
2021/01/05 01:43:52;;;;;;;1999.90;999.90;;;;;;;3.27;79.29;101274.91;15868558;28;20058;-62
2021/01/05 01:51:33;;;;;;;1999.90;999.90;;;;;;;3.10;79.88;101281.44;15849856;28;20043;-60
2021/01/05 01:59:26;;;;;;;1999.90;999.90;;;;;;;3.23;79.32;101279.28;15849170;28;20108;-58
2021/01/05 02:07:25;;;;;;;1999.90;999.90;;;;;;;3.22;79.38;101278.47;15848704;28;20408;-54
2021/01/05 02:15:13;;;;;;;1999.90;999.90;;;;;;;3.21;79.85;101281.50;15864209;28;20500;-56
2021/01/05 02:22:54;;;;;;;1999.90;999.90;;;;;;;3.23;79.65;101280.13;15848802;28;20184;-59
2021/01/05 02:30:35;;;;;;;1999.90;999.90;;;;;;;3.29;79.35;101268.00;15847263;28;20461;-59
2021/01/05 02:38:28;;;;;;;1999.90;999.90;;;;;;;3.40;78.51;101261.41;15846941;28;20222;-58
2021/01/05 02:46:40;;;;;;;1999.90;999.90;;;;;;;3.46;78.51;101254.00;15846514;28;20035;-60
2021/01/05 02:54:58;;;;;;;1999.90;999.90;;;;;;;3.18;79.99;101271.84;15864678;28;20074;-57
2021/01/05 03:03:31;;;;;;;1999.90;999.90;;;;;;;3.50;79.08;101260.63;15864113;28;20027;-60
2021/01/05 03:11:29;;;;;;;1999.90;999.90;;;;;;;3.27;79.26;101255.59;15861448;28;20138;-62
2021/01/05 03:19:35;;;;;;;1999.90;999.90;;;;;;;3.48;79.06;101254.53;15863287;28;20036;-61
2021/01/05 03:27:27;;;;;;;1999.90;999.90;;;;;;;3.24;79.16;101243.19;15843740;28;20208;-60
2021/01/05 03:35:19;;;;;;;1999.90;999.90;;;;;;;3.46;78.62;101240.19;15862869;28;20070;-61
2021/01/05 03:43:10;;;;;;;1999.90;999.90;;;;;;;3.40;78.69;101239.34;15863288;28;20587;-61
2021/01/05 03:51:02;;;;;;;1999.90;999.90;;;;;;;3.24;79.49;101248.69;15862905;28;20040;-59
2021/01/05 03:58:54;;;;;;;1999.90;999.90;;;;;;;3.17;79.52;101251.69;15862547;28;20047;-57
2021/01/05 04:06:46;;;;;;;1999.90;999.90;;;;;;;3.29;79.25;101245.94;15857575;28;20039;-59
2021/01/05 04:14:19;;;;;;;1999.90;999.90;;;;;;;3.56;78.51;101253.19;15860380;28;20439;-58
2021/01/05 04:21:52;;;;;;;1999.90;999.90;;;;;;;3.50;78.53;101237.72;15862043;28;20035;-57
2021/01/05 04:29:25;;;;;;;1999.90;999.90;;;;;;;3.26;79.11;101242.91;15861583;28;20055;-61
2021/01/05 04:36:58;;;;;;;1999.90;999.90;;;;;;;3.37;79.04;101233.56;15868728;28;20067;-61
2021/01/05 04:44:38;;;;;;;1999.90;999.90;;;;;;;3.39;78.39;101236.88;15872268;28;20044;-57
2021/01/05 04:52:16;;;;;;;1999.90;999.90;;;;;;;3.67;78.03;101241.06;15871214;28;20043;-59
2021/01/05 04:59:53;;;;;;;1999.90;999.90;;;;;;;3.48;78.01;101238.81;15870581;28;20067;-58
2021/01/05 05:07:49;;;;;;;1999.90;999.90;;;;;;;3.43;78.76;101244.31;15851683;28;20047;-60
2021/01/05 05:15:42;;;;;;;1999.90;999.90;;;;;;;3.38;78.94;101244.31;15836119;28;20134;-58
2021/01/05 05:23:32;;;;;;;1999.90;999.90;;;;;;;3.51;78.42;101237.44;15868296;28;20400;-61
2021/01/05 05:31:06;;;;;;;1999.90;999.90;;;;;;;3.51;78.29;101240.19;15868337;28;20039;-57
2021/01/05 05:38:56;;;;;;;1999.90;999.90;;;;;;;3.34;79.06;101239.63;15849297;28;20055;-61
2021/01/05 05:46:38;;;;;;;1999.90;999.90;;;;;;;3.28;78.72;101244.28;15867813;28;20048;-60
2021/01/05 05:54:17;;;;;;;1999.90;999.90;;;;;;;3.57;77.62;101247.41;15866380;28;20115;-57
2021/01/05 06:01:49;;;;;;;1999.90;999.90;;;;;;;3.57;77.30;101239.13;15867654;28;20048;-62
2021/01/05 06:09:23;;;;;;;1999.90;999.90;;;;;;;3.22;78.77;101250.03;15831053;28;20043;-56
2021/01/05 06:16:55;;;;;;;1999.90;999.90;;;;;;;3.38;78.28;101243.47;15864676;28;20082;-56
2021/01/05 06:24:29;;;;;;;1999.90;999.90;;;;;;;3.28;78.60;101255.31;15865524;28;20404;-57
2021/01/05 06:32:01;;;;;;;1999.90;999.90;;;;;;;3.26;78.50;101267.72;15865747;28;20428;-55
2021/01/05 06:39:35;;;;;;;1999.90;999.90;;;;;;;3.19;78.56;101254.19;15864831;28;20035;-58
2021/01/05 06:47:07;;;;;;;1999.90;999.90;;;;;;;3.18;78.40;101250.59;15864175;28;20040;-58
2021/01/05 06:54:41;;;;;;;1999.90;999.90;;;;;;;3.39;77.62;101245.13;15864029;28;20075;-57
2021/01/05 07:02:15;;;;;;;;;;;;;;;3.51;77.31;101251.22;15863813;28;20051;-54
2021/01/05 07:09:48;;;;;;;1999.90;999.90;;;;;;;3.47;77.13;101258.41;15863788;28;19935;-56
2021/01/05 07:17:21;;;;;;;1999.90;999.90;;;;;;;3.59;76.89;101264.50;15863732;28;20511;-57
2021/01/05 07:24:54;;;;;;;1999.90;999.90;;;;;;;3.38;77.80;101271.91;15862674;28;20147;-52
2021/01/05 07:32:27;;;;;;;1999.90;999.90;;;;;;;3.52;76.93;101268.63;15862956;28;20499;-56
2021/01/05 07:40:00;;;;;;;1999.90;999.90;;;;;;;3.84;76.78;101277.50;15863069;28;20080;-60
2021/01/05 07:47:34;;;;;;;1999.90;999.90;;;;;;;3.86;76.43;101271.72;15845096;28;20039;-57
2021/01/05 07:55:13;;;;;;;1999.90;999.90;;;;;;;3.78;77.07;101283.31;15844447;28;20047;-56
2021/01/05 08:02:46;;;;;;;1999.90;999.90;;;;;;;3.63;77.14;101281.34;15862015;28;20349;-58
2021/01/05 08:10:21;;;;;;;;;;;;;;;3.87;76.61;101281.66;15849137;28;20130;-57
2021/01/05 08:17:53;;;;;;;1999.90;999.90;;;;;;;3.84;77.05;101282.19;15873704;28;20405;-61
2021/01/05 08:25:27;;;;;;;1999.90;999.90;;;;;;;3.89;76.68;101279.44;15854560;28;20040;-58
2021/01/05 08:33:01;;;;;;;1999.90;999.90;;;;;;;3.65;77.29;101293.78;15854704;28;20047;-58
2021/01/05 08:40:35;;;;;;;1999.90;999.90;;;;;;;3.75;77.64;101293.81;15872365;28;20577;-57
2021/01/05 08:48:10;;;;;;;1999.90;999.90;;;;;;;3.95;76.73;101300.44;15871951;28;20114;-57
2021/01/05 08:55:46;;;;;;;1999.90;999.90;;;;;;;3.85;77.08;101300.41;15870857;28;20535;-59
2021/01/05 09:03:18;;;;;;;;;;;;;;;3.99;77.28;101298.78;15853407;28;20512;-57
2021/01/05 09:10:52;;;;;;;1999.90;999.90;;;;;;;3.98;76.83;101292.44;15852491;28;19935;-58
2021/01/05 09:18:24;;;;;;;1999.90;999.90;;;;;;;4.12;76.82;101292.72;15851730;28;20043;-56
2021/01/05 09:25:58;;;;;;;1999.90;999.90;;;;;;;4.07;77.21;101283.63;15867856;28;20035;-58
2021/01/05 09:33:30;;;;;;;1999.90;999.90;;;;;;;3.98;77.42;101277.81;15868880;28;20393;-57
2021/01/05 09:41:04;;;;;;;1999.90;999.90;;;;;;;4.00;77.09;101279.19;15868487;28;20450;-58
2021/01/05 09:48:37;;;;;;;1999.90;999.90;;;;;;;4.11;77.22;101271.72;15868164;28;20079;-58
2021/01/05 09:56:11;;;;;;;1999.90;999.90;;;;;;;4.33;76.50;101271.44;15868253;28;20131;-56
2021/01/05 10:03:44;;;;;;;1999.90;999.90;;;;;;;4.69;75.56;101258.41;15868297;28;20047;-58
2021/01/05 10:11:18;;;;;;;1999.90;999.90;;;;;;;4.57;76.19;101261.44;15831839;28;20056;-57
2021/01/05 10:18:51;;;;;;;1999.90;999.90;;;;;;;4.54;75.66;101261.19;15867398;28;20052;-55
2021/01/05 10:26:25;;;;;;;1999.90;999.90;;;;;;;4.52;75.64;101255.94;15847715;28;20116;-54
2021/01/05 10:33:57;;;;;;;1999.90;999.90;;;;;;;4.18;77.00;101252.94;15865368;28;20118;-55
2021/01/05 10:41:35;;;;;;;1999.90;999.90;;;;;;;4.20;77.35;101242.44;15846550;28;20514;-54
2021/01/05 10:49:08;;;;;;;1999.90;999.90;;;;;;;4.14;77.70;101235.25;15846696;28;20051;-54
2021/01/05 10:56:42;;;;;;;;;;;;;;;4.39;76.58;101226.13;15864215;28;20035;-55
2021/01/05 11:04:15;;;;;;;1999.90;999.90;;;;;;;4.47;77.13;101236.59;15863272;28;19919;-56
2021/01/05 11:11:55;;;;;;;1999.90;999.90;;;;;;;4.58;76.82;101232.69;15863849;28;20052;-56
2021/01/05 11:19:28;;;;;;;1999.90;999.90;;;;;;;4.50;77.09;101224.16;15865212;28;20122;-59
2021/01/05 11:27:02;;;;;;;1999.90;999.90;;;;;;;4.42;77.31;101221.97;15865885;28;20040;-52
2021/01/05 11:34:35;;;;;;;1999.90;999.90;;;;;;;4.22;77.85;101207.06;15865425;28;20036;-60
2021/01/05 11:42:11;;;;;;;1999.90;999.90;;;;;;;4.35;77.37;101195.44;15866499;28;20358;-57
2021/01/05 11:49:44;;;;;;;1999.90;999.90;;;;;;;4.21;77.95;101193.53;15843788;28;20120;-55
2021/01/05 11:57:18;;;;;;;1999.90;999.90;;;;;;;4.45;76.57;101186.28;15843760;28;20524;-55
2021/01/05 12:04:50;;;;;;;1999.90;999.90;;;;;;;4.46;76.38;101171.38;15843312;28;20309;-52
2021/01/05 12:12:24;;;;;;;1999.90;999.90;;;;;;;4.41;76.54;101176.94;15843772;28;20168;-56
2021/01/05 12:19:59;;;;;;;1999.90;999.90;;;;;;;4.60;75.67;101175.22;15842838;28;20047;-56
2021/01/05 12:27:32;;;;;;;1999.90;999.90;;;;;;;4.47;76.42;101173.03;15860742;28;20221;-53
2021/01/05 12:35:06;;;;;;;1999.90;999.90;;;;;;;4.28;76.95;101177.53;15859967;28;20366;-53
2021/01/05 12:42:39;;;;;;;1999.90;999.90;;;;;;;4.33;77.10;101181.09;15860123;28;20473;-54
2021/01/05 12:50:14;;;;;;;1999.90;999.90;;;;;;;4.27;77.08;101176.69;15859877;28;20043;-54
2021/01/05 12:57:47;;;;;;;1999.90;999.90;;;;;;;4.70;76.34;101179.06;15866755;28;20509;-56
2021/01/05 13:05:20;;;;;;;1999.90;999.90;;;;;;;4.37;78.12;101180.50;15853523;28;20118;-58
2021/01/05 13:12:53;;;;;;;1999.90;999.90;;;;;;;4.68;77.92;101184.00;15870466;28;20077;-56
2021/01/05 13:20:26;;;;;;;1999.90;999.90;;;;;;;4.54;77.37;101176.31;15870078;28;20412;-54
2021/01/05 13:27:59;;;;;;;1999.90;999.90;;;;;;;4.63;77.59;101169.09;15869354;28;20111;-54
2021/01/05 13:35:32;;;;;;;1999.90;999.90;;;;;;;4.64;78.16;101181.00;15869230;28;20151;-57
2021/01/05 13:43:06;;;;;;;1999.90;999.90;;;;;;;4.36;79.71;101176.91;15868732;28;20109;-58
2021/01/05 13:50:39;;;;;;;1999.90;999.90;;;;;;;4.32;79.29;101182.19;15868736;28;20116;-57
2021/01/05 13:58:12;;;;;;;1999.90;999.90;;;;;;;4.51;79.11;101176.91;15868310;28;20755;-52
2021/01/05 14:05:45;;;;;;;1999.90;999.90;;;;;;;4.60;78.84;101166.09;15832400;28;20503;-53
2021/01/05 14:13:21;;;;;;;1999.90;999.90;;;;;;;4.70;78.92;101168.00;15867851;28;20492;-55
2021/01/05 14:20:53;;;;;;;1999.90;999.90;;;;;;;4.67;78.98;101160.25;15866600;28;20416;-55
2021/01/05 14:28:27;;;;;;;1999.90;999.90;;;;;;;4.64;78.97;101167.16;15847519;28;20485;-54
2021/01/05 14:35:59;;;;;;;1999.90;999.90;;;;;;;4.75;78.48;101156.91;15847709;28;20039;-55
2021/01/05 14:43:33;;;;;;;1999.90;999.90;;;;;;;4.46;79.33;101152.03;15865790;28;20040;-55
2021/01/05 14:51:06;;;;;;;1999.90;999.90;;;;;;;4.67;77.88;101158.31;15864775;28;20051;-57
2021/01/05 14:58:39;;;;;;;1999.90;999.90;;;;;;;4.62;78.60;101164.69;15845301;28;20062;-54
2021/01/05 15:06:17;;;;;;;1999.90;999.90;;;;;;;4.54;78.84;101162.50;15863132;28;20039;-57
2021/01/05 15:13:52;;;;;;;1999.90;999.90;;;;;;;4.69;78.49;101161.63;15845544;28;20035;-57
2021/01/05 15:21:25;;;;;;;1999.90;999.90;;;;;;;4.81;77.87;101166.84;15863090;28;20531;-56
2021/01/05 15:28:59;;;;;;;1999.90;999.90;;;;;;;4.82;77.93;101158.25;15862791;28;20059;-57
2021/01/05 15:36:33;;;;;;;1999.90;999.90;;;;;;;4.93;77.24;101164.56;15862447;28;20109;-58
2021/01/05 15:44:07;;;;;;;;;;;;;;;4.89;76.97;101153.22;15851075;28;20039;-58
2021/01/05 15:51:40;;;;;;;1999.90;999.90;;;;;;;5.12;76.92;101157.25;15844693;28;19919;-58
2021/01/05 15:59:14;;;;;;;1999.90;999.90;;;;;;;5.11;76.45;101149.25;15844483;28;20301;-59
2021/01/05 16:06:48;;;;;;;1999.90;999.90;;;;;;;5.17;76.20;101148.09;15841990;28;20066;-55
2021/01/05 16:14:23;;;;;;;1999.90;999.90;;;;;;;5.19;76.22;101149.44;15863352;28;20051;-57
2021/01/05 16:21:57;;;;;;;1999.90;999.90;;;;;;;5.23;76.40;101146.97;15861477;28;20055;-58
2021/01/05 16:29:31;;;;;;;1999.90;999.90;;;;;;;5.00;76.96;101140.16;15862936;28;20040;-55
2021/01/05 16:37:06;;;;;;;1999.90;999.90;;;;;;;5.26;76.54;101138.06;15873527;28;20078;-55
2021/01/05 16:44:40;;;;;;;1999.90;999.90;;;;;;;5.14;76.62;101135.66;15873216;28;20136;-56
2021/01/05 16:52:12;;;;;;;1999.90;999.90;;;;;;;5.02;77.05;101134.38;15873963;28;20036;-58
2021/01/05 16:59:46;;;;;;;1999.90;999.90;;;;;;;5.07;75.96;101137.91;15872447;28;20489;-54
2021/01/05 17:07:19;;;;;;;1999.90;999.90;;;;;;;5.18;75.85;101144.22;15872100;27;20334;-59
2021/01/05 17:14:52;;;;;;;1999.90;999.90;;;;;;;5.21;75.62;101129.81;15875069;27;20372;-54
2021/01/05 17:22:24;;;;;;;1999.90;999.90;;;;;;;5.13;75.73;101128.47;15915794;27;20035;-58
2021/01/05 17:29:58;;;;;;;1999.90;999.90;;;;;;;5.14;75.88;101130.13;15852643;27;20058;-56
2021/01/05 17:37:31;;;;;;;1999.90;999.90;;;;;;;5.04;76.36;101126.59;15843303;28;20051;-57
2021/01/05 17:45:07;;;;;;;1999.90;999.90;;;;;;;5.13;76.26;101120.19;15867696;28;20052;-57
2021/01/05 17:52:44;;;;;;;1999.90;999.90;;;;;;;5.04;76.01;101130.19;15851240;28;20488;-55
2021/01/05 18:00:20;;;;;;;1999.90;999.90;;;;;;;5.26;75.67;101138.06;15868045;28;20057;-54
2021/01/05 18:07:55;;;;;;;1999.90;999.90;;;;;;;5.18;75.39;101135.91;15867539;28;20042;-53
2021/01/05 18:15:32;;;;;;;1999.90;999.90;;;;;;;4.98;75.50;101122.19;15848909;28;20096;-54
2021/01/05 18:23:05;;;;;;;1999.90;999.90;;;;;;;5.28;74.79;101124.75;15848874;28;20040;-56
2021/01/05 18:30:39;;;;;;;1999.90;999.90;;;;;;;5.44;73.62;101120.78;15863875;27;20130;-58
2021/01/05 18:38:12;;;;;;;;;;;;;;;5.60;73.18;101128.94;15879268;27;20039;-58
2021/01/05 18:45:49;;;;;;;1999.90;999.90;;;;;;;5.49;73.88;101126.25;15870868;27;20373;-55
2021/01/05 18:53:22;;;;;;;1999.90;999.90;;;;;;;5.64;72.77;101105.94;15878203;27;20126;-63
2021/01/05 19:00:55;;;;;;;1999.90;999.90;;;;;;;5.70;72.56;101099.22;15864960;28;20036;-62
2021/01/05 19:08:29;;;;;;;1999.90;999.90;;;;;;;5.59;72.62;101121.75;15865239;28;20051;-61
2021/01/05 19:16:03;;;;;;;1999.90;999.90;;;;;;;5.58;72.92;101120.94;15845809;28;20076;-58
2021/01/05 19:23:36;;;;;;;1999.90;999.90;;;;;;;5.91;71.80;101113.75;15845563;28;20060;-55
2021/01/05 19:31:10;;;;;;;1999.90;999.90;;;;;;;5.85;71.80;101100.22;15862284;28;20458;-53
2021/01/05 19:38:43;;;;;;;1999.90;999.90;;;;;;;6.04;71.57;101103.91;15844895;28;20063;-55
2021/01/05 19:46:21;;;;;;;1999.90;999.90;;;;;;;5.97;71.90;101093.19;15860138;27;20067;-57
2021/01/05 19:53:54;;;;;;;1999.90;999.90;;;;;;;5.73;73.02;101086.72;15839796;28;20036;-53
2021/01/05 20:01:30;;;;;;;1999.90;999.90;;;;;;;5.92;71.77;101090.47;15860797;28;20047;-53
2021/01/05 20:09:03;;;;;;;1999.90;999.90;;;;;;;5.95;72.10;101091.84;15870102;28;20043;-57
2021/01/05 20:16:36;;;;;;;1999.90;999.90;;;;;;;5.83;72.36;101085.81;15872511;28;20055;-57
2021/01/05 20:24:08;;;;;;;;;;;;;;;6.10;71.74;101082.53;15872084;28;20089;-55
2021/01/05 20:31:43;;;;;;;1999.90;999.90;;;;;;;5.79;73.32;101068.97;15870601;28;20287;-53
2021/01/05 20:39:16;;;;;;;1999.90;999.90;;;;;;;5.72;73.82;101055.44;15871721;28;20090;-59
2021/01/05 20:46:49;;;;;;;1999.90;999.90;;;;;;;5.88;73.84;101041.47;15870414;28;20183;-57
2021/01/05 20:54:22;;;;;;;;;;;;;;;5.89;74.84;101035.63;15869610;28;20052;-55
2021/01/05 21:01:56;;;;;;;1999.90;999.90;;;;;;;5.82;74.19;101037.91;15869831;28;19919;-54
2021/01/05 21:09:28;;;;;;;1999.90;999.90;;;;;;;5.59;76.01;101034.00;15869292;28;20051;-56
2021/01/05 21:17:02;;;;;;;1999.90;999.90;;;;;;;5.75;75.74;101024.44;15848206;28;20076;-54
2021/01/05 21:24:35;;;;;;;;;;;;;;;6.02;75.00;101028.56;15850551;28;20118;-52
2021/01/05 21:32:09;;;;;;;1999.90;999.90;;;;;;;5.89;74.79;101018.19;15869478;28;19919;-58
2021/01/05 21:39:42;;;;;;;1999.90;999.90;;;;;;;6.05;74.61;101023.28;15868160;28;20130;-59
2021/01/05 21:47:14;;;;;;;1999.90;999.90;;;;;;;6.08;74.79;101008.00;15866407;28;20058;-56
2021/01/05 21:54:47;;;;;;;1999.90;999.90;;;;;;;6.23;73.41;101002.28;15867606;28;20040;-55
2021/01/05 22:02:20;;;;;;;1999.90;999.90;;;;;;;6.21;73.27;101010.06;15866036;28;20052;-55
2021/01/05 22:09:57;;;;;;;;;;;;;;;6.24;73.54;100992.00;15832344;28;20192;-56
2021/01/05 22:17:31;;;;;;;1999.90;999.90;;;;;;;6.32;73.64;100992.19;15866420;28;19924;-57
2021/01/05 22:25:04;;;;;;;1999.90;999.90;;;;;;;6.30;73.34;100971.44;15847984;28;20043;-60
2021/01/05 22:32:38;;;;;;;1999.90;999.90;;;;;;;6.04;74.22;100954.31;15846968;28;20104;-58
2021/01/05 22:40:13;;;;;;;1999.90;999.90;;;;;;;6.12;74.16;100956.41;15847658;28;20130;-58
2021/01/05 22:47:47;;;;;;;1999.90;999.90;;;;;;;6.21;74.25;100951.88;15865894;28;20366;-57
2021/01/05 22:55:19;;;;;;;1999.90;999.90;;;;;;;5.99;74.81;100930.28;15845937;28;20039;-57
2021/01/05 23:02:53;;;;;;;1999.90;999.90;;;;;;;5.97;75.29;100926.97;15863663;28;20071;-56
2021/01/05 23:10:31;;;;;;;1999.90;999.90;;;;;;;5.88;76.06;100922.38;15863548;28;20052;-55
2021/01/05 23:18:09;;;;;;;1999.90;999.90;;;;;;;5.92;75.17;100921.50;15863132;28;20055;-56
2021/01/05 23:25:43;;;;;;;1999.90;999.90;;;;;;;6.07;74.96;100910.22;15843430;28;20074;-56
2021/01/05 23:33:19;;;;;;;1999.90;999.90;;;;;;;6.13;75.48;100905.41;15828806;28;20043;-56
2021/01/05 23:40:52;;;;;;;1999.90;999.90;;;;;;;6.11;75.49;100904.06;15860741;28;20058;-55
2021/01/05 23:48:27;;;;;;;1999.90;999.90;;;;;;;6.10;75.74;100891.34;15861679;28;20051;-53
2021/01/05 23:55:59;;;;;;;1999.90;999.90;;;;;;;6.18;75.14;100887.91;15860526;28;20043;-56
